createdAt,value
2023-03-15T00:00:02.617Z,97861.47
2023-03-15T00:02:33.945Z,97870.97
2023-03-15T00:05:04.539Z,97873.72
2023-03-15T00:07:33.324Z,97875.28
2023-03-15T00:10:03.417Z,97872.47
2023-03-15T00:12:34.418Z,97873.44
2023-03-15T00:15:03.911Z,97878.50
2023-03-15T00:17:35.496Z,97882.34
2023-03-15T00:20:07.122Z,97884.50
2023-03-15T00:22:36.851Z,97877.16
2023-03-15T00:25:08.324Z,97879.38
2023-03-15T00:27:38.754Z,97885.38
2023-03-15T00:30:13.097Z,97892.72
2023-03-15T00:32:44.586Z,97892.72
2023-03-15T00:35:14.839Z,97892.22
2023-03-15T00:37:44.226Z,97892.91
2023-03-15T00:40:15.961Z,97884.31
2023-03-15T00:42:50.423Z,97889.09
2023-03-15T00:45:22.705Z,97898.47
2023-03-15T00:47:55.772Z,97877.00
2023-03-15T00:50:27.236Z,97880.69
2023-03-15T00:52:56.970Z,97878.09
2023-03-15T00:55:25.919Z,97879.94
2023-03-15T00:57:54.911Z,97888.63
2023-03-15T01:00:25.875Z,97893.38
2023-03-15T01:02:57.016Z,97895.56
2023-03-15T01:05:26.791Z,97895.84
2023-03-15T01:07:57.263Z,97896.66
2023-03-15T01:10:27.658Z,97899.38
2023-03-15T01:12:57.576Z,97898.31
2023-03-15T01:15:28.020Z,97897.78
2023-03-15T01:18:00.006Z,97894.50
2023-03-15T01:20:29.482Z,97901.31
2023-03-15T01:22:59.333Z,97908.41
2023-03-15T01:25:28.592Z,97907.41
2023-03-15T01:27:58.601Z,97917.22
2023-03-15T01:30:28.788Z,97921.72
2023-03-15T01:32:59.164Z,97915.88
2023-03-15T01:35:29.484Z,97925.81
2023-03-15T01:37:59.236Z,97921.47
2023-03-15T01:40:27.623Z,97924.47
2023-03-15T01:43:18.563Z,97929.09
2023-03-15T01:46:19.265Z,97933.75
2023-03-15T01:48:58.080Z,97935.66
2023-03-15T01:51:38.340Z,97934.84
2023-03-15T01:54:17.689Z,97943.13
2023-03-15T01:56:54.027Z,97930.88
2023-03-15T01:59:28.969Z,97936.97
2023-03-15T02:02:00.040Z,97933.44
2023-03-15T02:04:38.181Z,97938.78
2023-03-15T02:07:11.569Z,97943.41
2023-03-15T02:09:54.904Z,97934.84
2023-03-15T02:12:25.203Z,97943.00
2023-03-15T02:14:55.245Z,97936.88
2023-03-15T02:17:35.836Z,97942.88
2023-03-15T02:20:20.279Z,97948.97
2023-03-15T02:22:58.724Z,97948.31
2023-03-15T02:25:43.653Z,97954.00
2023-03-15T02:28:19.598Z,97962.03
2023-03-15T02:30:50.701Z,97961.75
2023-03-15T02:33:27.549Z,97969.50
2023-03-15T02:35:58.711Z,97961.75
2023-03-15T02:38:28.531Z,97956.88
2023-03-15T02:40:57.505Z,97961.38
2023-03-15T02:43:32.920Z,97965.84
2023-03-15T02:46:05.184Z,97966.66
2023-03-15T02:48:38.175Z,97970.19
2023-03-15T02:51:08.564Z,97967.75
2023-03-15T02:53:38.526Z,97964.22
2023-03-15T02:56:09.686Z,97972.91
2023-03-15T02:58:40.524Z,97974.81
2023-03-15T03:01:10.646Z,97973.47
2023-03-15T03:03:41.163Z,97982.03
2023-03-15T03:06:11.527Z,97975.38
2023-03-15T03:08:41.396Z,97975.66
2023-03-15T03:11:10.859Z,97969.81
2023-03-15T03:13:41.239Z,97975.91
2023-03-15T03:16:11.896Z,97971.03
2023-03-15T03:18:42.311Z,97977.03
2023-03-15T03:21:12.079Z,97974.28
2023-03-15T03:23:42.161Z,97980.25
2023-03-15T03:26:18.284Z,97984.88
2023-03-15T03:28:50.240Z,97984.34
2023-03-15T03:31:21.753Z,97982.69
2023-03-15T03:33:52.466Z,97986.78
2023-03-15T03:36:22.641Z,97970.63
2023-03-15T03:38:52.133Z,97985.97
2023-03-15T03:41:22.260Z,97984.34
2023-03-15T03:43:54.373Z,97998.72
2023-03-15T03:46:25.281Z,97990.59
2023-03-15T03:48:55.521Z,97994.13
2023-03-15T03:51:25.217Z,98001.47
2023-03-15T03:53:54.720Z,97997.78
2023-03-15T03:56:25.726Z,98004.69
2023-03-15T03:58:57.225Z,98009.88
2023-03-15T04:01:27.988Z,98007.56
2023-03-15T04:03:58.517Z,98008.50
2023-03-15T04:06:28.554Z,97999.81
2023-03-15T04:08:59.194Z,97997.25
2023-03-15T04:11:28.801Z,97997.91
2023-03-15T04:13:59.087Z,98003.88
2023-03-15T04:16:29.121Z,98015.13
2023-03-15T04:18:58.025Z,98008.38
2023-03-15T04:21:32.400Z,98020.19
2023-03-15T04:24:03.111Z,98014.47
2023-03-15T04:26:35.102Z,98014.47
2023-03-15T04:29:05.886Z,98014.47
2023-03-15T04:31:37.846Z,98017.88
2023-03-15T04:34:08.463Z,98014.75
2023-03-15T04:36:38.481Z,98016.50
2023-03-15T04:39:07.894Z,98015.56
2023-03-15T04:41:39.518Z,98007.13
2023-03-15T04:44:09.297Z,98004.72
2023-03-15T04:46:39.490Z,98012.56
2023-03-15T04:49:09.567Z,98007.41
2023-03-15T04:51:39.181Z,98012.56
2023-03-15T04:54:08.550Z,98029.00
2023-03-15T04:56:38.108Z,98023.44
2023-03-15T04:59:07.969Z,98019.91
2023-03-15T05:01:36.986Z,98024.25
2023-03-15T05:04:07.941Z,98019.09
2023-03-15T05:06:38.203Z,98025.72
2023-03-15T05:09:07.528Z,98038.63
2023-03-15T05:11:37.506Z,98037.00
2023-03-15T05:14:08.410Z,98041.63
2023-03-15T05:16:39.225Z,98041.91
2023-03-15T05:19:09.679Z,98052.22
2023-03-15T05:21:38.685Z,98061.56
2023-03-15T05:24:09.643Z,98067.00
2023-03-15T05:26:40.602Z,98057.38
2023-03-15T05:29:10.798Z,98064.13
2023-03-15T05:31:41.397Z,98057.94
2023-03-15T05:34:12.258Z,98065.25
2023-03-15T05:36:42.431Z,98067.81
2023-03-15T05:39:16.689Z,98063.34
2023-03-15T05:41:46.157Z,98061.44
2023-03-15T05:44:18.192Z,98073.53
2023-03-15T05:46:47.719Z,98078.69
2023-03-15T05:49:16.636Z,98089.25
2023-03-15T05:51:45.619Z,98087.91
2023-03-15T05:54:14.612Z,98088.47
2023-03-15T05:56:45.868Z,98091.47
2023-03-15T05:59:18.058Z,98090.25
2023-03-15T06:01:47.021Z,98091.06
2023-03-15T06:04:16.538Z,98082.91
2023-03-15T06:06:46.038Z,98098.81
2023-03-15T06:09:15.645Z,98095.13
2023-03-15T06:11:44.555Z,98092.28
2023-03-15T06:14:14.023Z,98091.34
2023-03-15T06:16:46.008Z,98091.88
2023-03-15T06:19:15.627Z,98098.53
2023-03-15T06:21:46.346Z,98100.06
2023-03-15T06:24:16.309Z,98105.75
2023-03-15T06:26:46.268Z,98100.59
2023-03-15T06:29:17.902Z,98105.75
2023-03-15T06:31:50.115Z,98105.47
2023-03-15T06:34:21.149Z,98102.75
2023-03-15T06:36:53.196Z,98103.72
2023-03-15T06:39:23.875Z,98104.50
2023-03-15T06:41:57.988Z,98102.06
2023-03-15T06:44:28.592Z,98101.94
2023-03-15T06:47:00.529Z,98102.91
2023-03-15T06:49:29.783Z,98115.38
2023-03-15T06:51:59.991Z,98107.34
2023-03-15T06:54:29.579Z,98107.22
2023-03-15T06:57:00.538Z,98106.13
2023-03-15T06:59:31.096Z,98115.53
2023-03-15T07:02:03.022Z,98118.91
2023-03-15T07:04:32.980Z,98110.75
2023-03-15T07:07:03.626Z,98113.34
2023-03-15T07:09:33.929Z,98118.22
2023-03-15T07:12:03.478Z,98118.50
2023-03-15T07:14:34.284Z,98121.78
2023-03-15T07:17:06.246Z,98114.69
2023-03-15T07:19:41.419Z,98122.72
2023-03-15T07:22:15.815Z,98126.94
2023-03-15T07:24:46.074Z,98124.91
2023-03-15T07:27:19.321Z,98133.19
2023-03-15T07:29:49.085Z,98132.09
2023-03-15T07:32:20.082Z,98138.63
2023-03-15T07:34:50.758Z,98141.75
2023-03-15T07:37:19.745Z,98145.69
2023-03-15T07:39:49.752Z,98150.56
2023-03-15T07:42:20.314Z,98140.91
2023-03-15T07:44:50.396Z,98141.47
2023-03-15T07:47:21.910Z,98143.50
2023-03-15T07:49:51.556Z,98143.78
2023-03-15T07:52:22.682Z,98145.13
2023-03-15T07:54:51.804Z,98158.59
2023-03-15T07:57:21.832Z,98147.16
2023-03-15T07:59:52.687Z,98163.06
2023-03-15T08:02:24.438Z,98162.91
2023-03-15T08:04:54.649Z,98166.03
2023-03-15T08:07:25.620Z,98170.28
2023-03-15T08:09:54.535Z,98176.09
2023-03-15T08:12:25.110Z,98173.50
2023-03-15T08:14:55.170Z,98180.31
2023-03-15T08:17:26.010Z,98184.28
2023-03-15T08:19:55.999Z,98178.16
2023-03-15T08:22:25.199Z,98183.88
2023-03-15T08:24:55.852Z,98183.72
2023-03-15T08:27:25.513Z,98190.09
2023-03-15T08:29:56.114Z,98187.09
2023-03-15T08:32:28.138Z,98200.84
2023-03-15T08:34:58.087Z,98201.91
2023-03-15T08:37:28.778Z,98211.16
2023-03-15T08:40:01.852Z,98206.22
2023-03-15T08:42:31.807Z,98204.88
2023-03-15T08:45:03.265Z,98209.91
2023-03-15T08:47:35.917Z,98214.56
2023-03-15T08:50:06.453Z,98213.19
2023-03-15T08:52:36.962Z,98217.16
2023-03-15T08:55:09.231Z,98214.97
2023-03-15T08:57:39.905Z,98226.69
2023-03-15T09:00:16.888Z,98227.38
2023-03-15T09:02:50.420Z,98229.78
2023-03-15T09:05:21.742Z,98225.03
2023-03-15T09:07:53.642Z,98222.94
2023-03-15T09:10:23.162Z,98221.44
2023-03-15T09:12:54.212Z,98228.25
2023-03-15T09:15:24.267Z,98234.25
2023-03-15T09:17:56.062Z,98226.56
2023-03-15T09:20:28.801Z,98232.56
2023-03-15T09:22:59.450Z,98236.91
2023-03-15T09:25:30.333Z,98241.81
2023-03-15T09:28:00.549Z,98239.50
2023-03-15T09:30:31.261Z,98248.88
2023-03-15T09:33:02.487Z,98255.41
2023-03-15T09:35:32.686Z,98251.56
2023-03-15T09:38:04.489Z,98255.34
2023-03-15T09:40:40.514Z,98257.28
2023-03-15T09:43:54.846Z,98260.00
2023-03-15T09:46:34.403Z,98263.13
2023-03-15T09:49:15.470Z,98270.72
2023-03-15T09:51:51.596Z,98266.88
2023-03-15T09:54:26.530Z,98264.53
2023-03-15T09:57:02.778Z,98270.25
2023-03-15T09:59:36.473Z,98271.31
2023-03-15T10:02:24.699Z,98277.16
2023-03-15T10:05:01.644Z,98274.31
2023-03-15T10:07:33.132Z,98281.78
2023-03-15T10:10:05.600Z,98283.78
2023-03-15T10:12:42.694Z,98281.78
2023-03-15T10:15:33.938Z,98271.78
2023-03-15T10:18:33.496Z,98277.19
2023-03-15T10:21:14.514Z,98285.13
2023-03-15T10:23:52.342Z,98281.03
2023-03-15T10:26:30.077Z,98282.91
2023-03-15T10:29:04.421Z,98279.06
2023-03-15T10:31:44.486Z,98285.72
2023-03-15T10:34:16.370Z,98291.31
2023-03-15T10:36:55.004Z,98283.13
2023-03-15T10:39:26.564Z,98276.41
2023-03-15T10:41:56.430Z,98285.22
2023-03-15T10:44:27.923Z,98291.47
2023-03-15T10:47:22.551Z,98286.16
2023-03-15T10:49:58.290Z,98291.44
2023-03-15T10:52:44.087Z,98283.06
2023-03-15T10:55:18.883Z,98281.81
2023-03-15T10:57:56.698Z,98292.53
2023-03-15T11:00:33.192Z,98294.78
2023-03-15T11:03:08.579Z,98293.22
2023-03-15T11:05:44.237Z,98298.03
2023-03-15T11:08:18.908Z,98286.63
2023-03-15T11:10:58.321Z,98281.75
2023-03-15T11:13:30.916Z,98292.63
2023-03-15T11:16:06.120Z,98299.81
2023-03-15T11:18:44.055Z,98302.09
2023-03-15T11:21:17.314Z,98307.00
2023-03-15T11:23:52.089Z,98309.97
2023-03-15T11:26:32.523Z,98308.19
2023-03-15T11:29:09.410Z,98307.72
2023-03-15T11:31:41.244Z,98314.25
2023-03-15T11:34:23.153Z,98316.53
2023-03-15T11:37:07.625Z,98312.84
2023-03-15T11:39:45.467Z,98315.50
2023-03-15T11:42:24.365Z,98321.22
2023-03-15T11:44:59.862Z,98325.44
2023-03-15T11:47:43.526Z,98325.66
2023-03-15T11:50:16.631Z,98318.91
2023-03-15T11:52:51.858Z,98322.03
2023-03-15T11:55:28.096Z,98321.06
2023-03-15T11:57:59.166Z,98317.16
2023-03-15T12:00:55.088Z,98315.38
2023-03-15T12:03:45.375Z,98312.66
2023-03-15T12:06:38.635Z,98317.16
2023-03-15T12:09:46.950Z,98320.78
2023-03-15T12:12:40.329Z,98324.06
2023-03-15T12:15:49.885Z,98320.16
2023-03-15T12:18:35.376Z,98319.72
2023-03-15T12:21:16.317Z,98326.19
2023-03-15T12:23:57.411Z,98315.81
2023-03-15T12:26:42.435Z,98309.00
2023-03-15T12:29:24.804Z,98307.59
2023-03-15T12:32:06.882Z,98316.19
2023-03-15T12:34:49.299Z,98297.28
2023-03-15T12:37:23.921Z,98303.13
2023-03-15T12:40:05.638Z,98303.66
2023-03-15T12:43:04.059Z,98310.00
2023-03-15T12:46:03.147Z,98307.72
2023-03-15T12:48:34.112Z,98309.25
2023-03-15T12:51:07.437Z,98307.34
2023-03-15T12:53:46.596Z,98311.41
2023-03-15T12:56:52.284Z,98313.56
2023-03-15T12:59:41.848Z,98307.06
2023-03-15T13:02:42.655Z,98307.94
2023-03-15T13:05:26.426Z,98303.28
2023-03-15T13:08:07.785Z,98306.00
2023-03-15T13:11:13.620Z,98302.75
2023-03-15T13:14:18.187Z,98301.13
2023-03-15T13:16:59.409Z,98306.00
2023-03-15T13:19:38.980Z,98302.75
2023-03-15T13:22:33.985Z,98306.38
2023-03-15T13:25:16.608Z,98290.53
2023-03-15T13:27:56.234Z,98295.72
2023-03-15T13:30:35.700Z,98295.75
2023-03-15T13:33:21.702Z,98299.03
2023-03-15T13:36:02.431Z,98299.66
2023-03-15T13:38:35.322Z,98291.25
2023-03-15T13:41:08.010Z,98304.47
2023-03-15T13:43:42.412Z,98298.13
2023-03-15T13:46:13.074Z,98297.00
2023-03-15T13:48:44.632Z,98292.25
2023-03-15T13:51:27.930Z,98295.72
2023-03-15T13:54:03.812Z,98295.72
2023-03-15T13:56:48.826Z,98300.44
2023-03-15T13:59:21.092Z,98291.34
2023-03-15T14:01:54.469Z,98286.47
2023-03-15T14:04:26.931Z,98294.91
2023-03-15T14:07:27.563Z,98293.94
2023-03-15T14:10:31.097Z,98297.53
2023-03-15T14:13:18.611Z,98294.97
2023-03-15T14:15:49.756Z,98293.44
2023-03-15T14:18:25.205Z,98299.00
2023-03-15T14:21:02.453Z,98291.53
2023-03-15T14:23:33.597Z,98302.06
2023-03-15T14:26:15.343Z,98298.34
2023-03-15T14:28:52.740Z,98297.00
2023-03-15T14:31:26.906Z,98308.44
2023-03-15T14:34:05.528Z,98298.97
2023-03-15T14:36:42.900Z,98302.75
2023-03-15T14:39:21.533Z,98302.25
2023-03-15T14:41:52.230Z,98315.25
2023-03-15T14:44:23.191Z,98312.97
2023-03-15T14:46:53.390Z,98317.22
2023-03-15T14:49:27.616Z,98323.06
2023-03-15T14:52:02.639Z,98317.69
2023-03-15T14:54:35.486Z,98325.34
2023-03-15T14:57:05.293Z,98322.09
2023-03-15T14:59:35.462Z,98325.16
2023-03-15T15:02:07.243Z,98321.25
2023-03-15T15:04:39.421Z,98330.56
2023-03-15T15:07:12.392Z,98330.56
2023-03-15T15:09:50.647Z,98338.34
2023-03-15T15:12:20.956Z,98341.28
2023-03-15T15:14:51.021Z,98340.97
2023-03-15T15:17:21.816Z,98353.19
2023-03-15T15:19:51.665Z,98348.47
2023-03-15T15:22:21.482Z,98352.38
2023-03-15T15:24:52.424Z,98353.31
2023-03-15T15:27:20.974Z,98354.00
2023-03-15T15:29:51.597Z,98348.13
2023-03-15T15:32:20.904Z,98339.34
2023-03-15T15:34:50.518Z,98342.25
2023-03-15T15:37:19.424Z,98339.16
2023-03-15T15:39:49.991Z,98338.34
2023-03-15T15:42:21.634Z,98340.13
2023-03-15T15:44:51.221Z,98333.16
2023-03-15T15:47:20.895Z,98335.41
2023-03-15T15:49:50.348Z,98340.97
2023-03-15T15:52:19.980Z,98348.59
2023-03-15T15:54:50.844Z,98335.25
2023-03-15T15:57:27.348Z,98342.59
2023-03-15T15:59:57.968Z,98342.59
2023-03-15T16:02:28.669Z,98340.97
2023-03-15T16:04:58.980Z,98339.00
2023-03-15T16:07:27.960Z,98334.81
2023-03-15T16:10:00.364Z,98347.16
2023-03-15T16:12:32.801Z,98348.13
2023-03-15T16:15:01.941Z,98339.50
2023-03-15T16:17:32.590Z,98342.94
2023-03-15T16:20:01.606Z,98343.75
2023-03-15T16:22:30.593Z,98338.06
2023-03-15T16:25:02.066Z,98340.31
2023-03-15T16:27:34.072Z,98340.31
2023-03-15T16:30:06.423Z,98349.41
2023-03-15T16:32:44.499Z,98351.88
2023-03-15T16:35:16.632Z,98347.13
2023-03-15T16:37:48.371Z,98342.91
2023-03-15T16:40:26.931Z,98352.34
2023-03-15T16:42:58.958Z,98348.09
2023-03-15T16:45:29.585Z,98354.63
2023-03-15T16:47:59.284Z,98359.50
2023-03-15T16:50:29.272Z,98354.59
2023-03-15T16:53:02.786Z,98358.19
2023-03-15T16:55:34.052Z,98355.44
2023-03-15T16:58:12.936Z,98355.44
2023-03-15T17:00:44.415Z,98358.50
2023-03-15T17:03:14.231Z,98358.19
2023-03-15T17:05:46.689Z,98368.25
2023-03-15T17:08:21.717Z,98364.31
2023-03-15T17:10:51.610Z,98364.63
2023-03-15T17:13:28.279Z,98369.31
2023-03-15T17:15:57.993Z,98370.78
2023-03-15T17:18:29.079Z,98375.78
2023-03-15T17:20:58.819Z,98378.03
2023-03-15T17:23:27.847Z,98387.16
2023-03-15T17:25:56.852Z,98386.63
2023-03-15T17:28:28.160Z,98399.94
2023-03-15T17:31:13.927Z,98395.34
2023-03-15T17:33:46.271Z,98394.84
2023-03-15T17:36:20.024Z,98397.38
2023-03-15T17:38:51.067Z,98403.34
2023-03-15T17:41:23.728Z,98408.97
2023-03-15T17:43:54.947Z,98411.06
2023-03-15T17:46:30.583Z,98411.22
2023-03-15T17:49:00.563Z,98412.38
2023-03-15T17:51:33.465Z,98414.72
2023-03-15T17:54:03.461Z,98422.31
2023-03-15T17:56:32.885Z,98423.88
2023-03-15T17:59:04.758Z,98427.91
2023-03-15T18:01:36.836Z,98429.53
2023-03-15T18:04:07.864Z,98430.63
2023-03-15T18:06:37.367Z,98427.31
2023-03-15T18:09:06.731Z,98431.03
2023-03-15T18:11:37.810Z,98429.69
2023-03-15T18:14:08.222Z,98438.75
2023-03-15T18:16:38.349Z,98436.44
2023-03-15T18:19:06.837Z,98439.22
2023-03-15T18:21:37.201Z,98442.09
2023-03-15T18:24:07.349Z,98440.47
2023-03-15T18:26:36.298Z,98445.78
2023-03-15T18:29:07.007Z,98450.63
2023-03-15T18:31:36.951Z,98451.72
2023-03-15T18:34:06.754Z,98454.56
2023-03-15T18:36:35.787Z,98459.41
2023-03-15T18:39:07.789Z,98457.53
2023-03-15T18:41:38.190Z,98451.53
2023-03-15T18:44:11.425Z,98453.47
2023-03-15T18:46:44.374Z,98447.75
2023-03-15T18:49:14.629Z,98458.69
2023-03-15T18:51:44.082Z,98448.59
2023-03-15T18:54:13.046Z,98464.97
2023-03-15T18:56:43.850Z,98462.03
2023-03-15T18:59:15.463Z,98480.06
2023-03-15T19:01:45.259Z,98474.88
2023-03-15T19:04:15.089Z,98476.81
2023-03-15T19:06:46.046Z,98479.16
2023-03-15T19:09:15.099Z,98483.97
2023-03-15T19:11:44.132Z,98486.16
2023-03-15T19:14:14.762Z,98472.66
2023-03-15T19:16:43.833Z,98479.47
2023-03-15T19:19:14.063Z,98486.44
2023-03-15T19:21:44.379Z,98475.69
2023-03-15T19:24:13.513Z,98481.59
2023-03-15T19:26:43.282Z,98481.28
2023-03-15T19:29:14.439Z,98492.91
2023-03-15T19:31:45.044Z,98482.94
2023-03-15T19:34:14.634Z,98487.34
2023-03-15T19:36:44.137Z,98483.47
2023-03-15T19:39:15.206Z,98492.25
2023-03-15T19:41:45.783Z,98489.66
2023-03-15T19:44:16.452Z,98494.41
2023-03-15T19:46:46.991Z,98499.88
2023-03-15T19:49:16.695Z,98496.09
2023-03-15T19:51:46.872Z,98500.47
2023-03-15T19:54:16.550Z,98501.41
2023-03-15T19:56:45.740Z,98495.84
2023-03-15T19:59:17.312Z,98498.03
2023-03-15T20:01:46.957Z,98500.06
2023-03-15T20:04:16.594Z,98499.25
2023-03-15T20:06:46.930Z,98494.06
2023-03-15T20:09:16.448Z,98500.47
2023-03-15T20:11:46.608Z,98500.75
2023-03-15T20:14:18.710Z,98500.66
2023-03-15T20:16:47.880Z,98504.84
2023-03-15T20:19:18.122Z,98507.06
2023-03-15T20:21:47.665Z,98513.06
2023-03-15T20:24:17.773Z,98506.38
2023-03-15T20:26:47.829Z,98508.94
2023-03-15T20:29:18.376Z,98518.25
2023-03-15T20:31:48.668Z,98521.06
2023-03-15T20:34:18.699Z,98523.13
2023-03-15T20:36:48.296Z,98524.09
2023-03-15T20:39:19.330Z,98520.81
2023-03-15T20:41:48.794Z,98515.38
2023-03-15T20:44:19.574Z,98516.31
2023-03-15T20:46:48.638Z,98517.56
2023-03-15T20:49:17.622Z,98515.25
2023-03-15T20:51:47.030Z,98515.25
2023-03-15T20:54:16.980Z,98516.59
2023-03-15T20:56:46.986Z,98522.03
2023-03-15T20:59:17.898Z,98518.50
2023-03-15T21:01:48.236Z,98517.41
2023-03-15T21:04:18.060Z,98518.38
2023-03-15T21:06:47.586Z,98517.16
2023-03-15T21:09:17.555Z,98523.13
2023-03-15T21:11:47.087Z,98526.25
2023-03-15T21:14:18.127Z,98517.09
2023-03-15T21:16:47.164Z,98522.28
2023-03-15T21:19:16.742Z,98518.09
2023-03-15T21:21:47.298Z,98522.81
2023-03-15T21:24:16.237Z,98517.81
2023-03-15T21:26:49.170Z,98519.69
2023-03-15T21:29:19.482Z,98519.13
2023-03-15T21:31:50.132Z,98525.69
2023-03-15T21:34:20.890Z,98517.09
2023-03-15T21:36:51.183Z,98522.53
2023-03-15T21:39:19.583Z,98527.16
2023-03-15T21:41:48.112Z,98524.69
2023-03-15T21:44:18.481Z,98515.44
2023-03-15T21:46:46.991Z,98523.84
2023-03-15T21:49:16.842Z,98525.59
2023-03-15T21:51:47.116Z,98523.16
2023-03-15T21:54:15.636Z,98526.56
2023-03-15T21:56:45.939Z,98529.28
2023-03-15T21:59:14.781Z,98527.63
2023-03-15T22:01:48.096Z,98523.66
2023-03-15T22:04:18.084Z,98526.53
2023-03-15T22:06:47.610Z,98529.25
2023-03-15T22:09:16.979Z,98532.94
2023-03-15T22:11:46.603Z,98521.78
2023-03-15T22:14:15.611Z,98523.78
2023-03-15T22:16:45.714Z,98522.53
2023-03-15T22:19:15.830Z,98520.59
2023-03-15T22:21:44.860Z,98528.34
2023-03-15T22:24:13.325Z,98519.81
2023-03-15T22:26:43.537Z,98514.47
2023-03-15T22:29:13.930Z,98521.28
2023-03-15T22:31:42.931Z,98516.66
2023-03-15T22:34:13.698Z,98525.63
2023-03-15T22:36:43.641Z,98517.69
2023-03-15T22:39:13.255Z,98521.72
2023-03-15T22:41:43.150Z,98526.78
2023-03-15T22:44:12.665Z,98519.59
2023-03-15T22:46:41.138Z,98521.59
2023-03-15T22:49:11.177Z,98521.72
2023-03-15T22:51:41.996Z,98519.41
2023-03-15T22:54:11.522Z,98518.94
2023-03-15T22:56:41.981Z,98513.09
2023-03-15T22:59:11.441Z,98503.28
2023-03-15T23:01:41.980Z,98500.72
2023-03-15T23:04:11.010Z,98499.06
2023-03-15T23:06:43.256Z,98502.59
2023-03-15T23:09:13.004Z,98509.53
2023-03-15T23:11:43.096Z,98505.69
2023-03-15T23:14:11.908Z,98509.47
2023-03-15T23:16:40.883Z,98512.03
2023-03-15T23:19:10.394Z,98510.16
2023-03-15T23:21:41.161Z,98509.34
2023-03-15T23:24:10.922Z,98512.03
2023-03-15T23:26:39.936Z,98512.56
2023-03-15T23:29:11.487Z,98510.34
2023-03-15T23:31:41.870Z,98513.06
2023-03-15T23:34:12.471Z,98509.78
2023-03-15T23:36:44.122Z,98509.78
2023-03-15T23:39:14.525Z,98514.25
2023-03-15T23:41:45.717Z,98508.41
2023-03-15T23:44:15.588Z,98515.44
2023-03-15T23:46:44.687Z,98516.28
2023-03-15T23:49:13.829Z,98511.22
2023-03-15T23:51:44.775Z,98510.53
2023-03-15T23:54:15.608Z,98510.81
2023-03-15T23:56:46.320Z,98504.00
2023-03-15T23:59:14.864Z,98505.88
